Time;durP1;ratioP1;P1;durP2;ratioP2;P2;SDS_P1;SDS_P2;PMS_P1;PMS_P2;Temp;Humidity;BMP_temperature;BMP_pressure;BME280_temperature;BME280_humidity;BME280_pressure;Samples;Min_cycle;Max_cycle;Signal;HPM_P1;HPM_P2
2022/12/25 00:00:47;;;;;;;;;20.75;17.50;;;;;13.55;73.01;101252.56;2413055;28;45438;-77
2022/12/25 00:01:57;;;;;;;;;18.25;16.75;;;;;13.56;72.78;101250.75;2404159;28;45482;-77
2022/12/25 00:03:07;;;;;;;;;20.00;17.75;;;;;13.56;72.89;101253.41;2402712;28;45324;-77
2022/12/25 00:04:18;;;;;;;;;24.50;22.75;;;;;13.56;73.02;101256.94;2409281;28;45147;-77
2022/12/25 00:05:28;;;;;;;;;32.25;23.00;;;;;13.56;72.72;101256.03;2407370;28;46946;-77
2022/12/25 00:06:38;;;;;;;;;27.75;23.75;;;;;13.56;73.00;101253.41;2400860;28;45330;-77
2022/12/25 00:07:49;;;;;;;;;21.75;21.75;;;;;13.56;72.89;101262.22;2411631;28;46724;-77
2022/12/25 00:08:59;;;;;;;;;30.25;26.00;;;;;13.55;73.04;101257.84;2413146;28;45220;-77
2022/12/25 00:10:10;;;;;;;;;22.50;20.25;;;;;13.58;72.83;101259.53;2412055;28;45543;-77
2022/12/25 00:11:20;;;;;;;;;24.75;21.50;;;;;13.58;73.07;101256.91;2406602;28;45377;-77
2022/12/25 00:12:31;;;;;;;;;27.25;22.00;;;;;13.59;73.12;101263.91;2412485;28;45254;-77
2022/12/25 00:13:42;;;;;;;;;26.00;22.75;;;;;13.59;73.17;101263.91;2411787;28;45270;-77
2022/12/25 00:14:52;;;;;;;;;22.00;22.00;;;;;13.57;72.86;101260.44;2412836;28;45220;-77
2022/12/25 00:16:08;;;;;;;;;25.00;22.25;;;;;13.58;73.03;101259.53;2413032;28;45151;-77
2022/12/25 00:17:18;;;;;;;;;27.00;23.00;;;;;13.57;72.94;101268.38;2407249;28;46571;-77
2022/12/25 00:18:28;;;;;;;;;21.50;19.50;;;;;13.59;72.96;101269.19;2393327;28;45361;-77
2022/12/25 00:19:39;;;;;;;;;21.00;21.00;;;;;13.57;73.06;101258.69;2396133;28;46283;-77
2022/12/25 00:21:00;;;;;;;;;17.25;17.00;;;;;13.59;73.15;101261.25;2404028;28;45239;-77
2022/12/25 00:22:10;;;;;;;;;18.50;16.75;;;;;13.58;73.24;101257.75;2407718;28;46562;-77
2022/12/25 00:23:20;;;;;;;;;24.25;21.50;;;;;13.60;72.98;101265.63;2403486;28;45227;-77
2022/12/25 00:24:31;;;;;;;;;24.50;20.75;;;;;13.60;73.13;101262.97;2403445;28;46359;-77
2022/12/25 00:25:41;;;;;;;;;22.75;19.00;;;;;13.61;73.00;101259.41;2397714;28;45187;-77
2022/12/25 00:26:51;;;;;;;;;26.25;20.25;;;;;13.59;72.89;101254.19;2405236;28;46374;-77
2022/12/25 00:28:02;;;;;;;;;23.75;20.50;;;;;13.60;72.88;101250.66;2412703;28;44758;-77
2022/12/25 00:29:12;;;;;;;;;23.75;19.00;;;;;13.60;73.15;101252.41;2412761;28;45405;-77
2022/12/25 00:30:23;;;;;;;;;21.50;17.50;;;;;13.61;72.88;101248.84;2413007;28;45183;-77
2022/12/25 00:31:33;;;;;;;;;24.50;20.50;;;;;13.60;73.02;101245.38;2411851;28;46431;-77
2022/12/25 00:32:44;;;;;;;;;22.00;18.25;;;;;13.62;72.91;101242.66;2406887;28;45161;-77
2022/12/25 00:33:54;;;;;;;;;28.25;24.25;;;;;13.62;72.99;101245.28;2408638;28;45333;-77
2022/12/25 00:35:05;;;;;;;;;21.50;18.25;;;;;13.62;72.95;101242.66;2412869;28;45230;-77
2022/12/25 00:36:18;;;;;;;;;21.00;17.25;;;;;13.63;73.04;101243.53;2412901;28;45443;-77
2022/12/25 00:37:29;;;;;;;;;17.00;17.00;;;;;13.62;72.99;101247.94;2404295;28;44759;-77
2022/12/25 00:38:40;;;;;;;;;22.25;18.00;;;;;13.63;73.07;101247.00;2397595;28;47039;-77
2022/12/25 00:39:50;;;;;;;;;24.75;19.50;;;;;13.61;72.82;101247.06;2386702;28;44657;-77
2022/12/25 00:41:09;;;;;;;;;26.00;21.25;;;;;13.63;73.21;101254.09;2396127;28;45199;-77
2022/12/25 00:42:20;;;;;;;;;24.25;22.75;;;;;13.62;72.90;101258.50;2403153;28;44610;-77
2022/12/25 00:43:30;;;;;;;;;23.25;14.25;;;;;13.63;72.99;101257.56;2403150;28;46491;-77
2022/12/25 00:44:40;;;;;;;;;26.75;23.00;;;;;13.63;73.12;101262.00;2403340;28;45236;-77
2022/12/25 00:45:59;;;;;;;;;24.25;21.00;;;;;13.64;72.86;101267.22;2393036;28;46951;-77
2022/12/25 00:47:09;;;;;;;;;24.75;23.25;;;;;13.62;73.01;101261.16;2397499;28;45348;-77
2022/12/25 00:48:20;;;;;;;;;13.75;10.00;;;;;13.63;73.21;101265.50;2411586;28;46348;-77
2022/12/25 00:49:30;;;;;;;;;20.75;19.50;;;;;13.63;73.03;101257.56;2412745;28;44777;-77
2022/12/25 00:50:42;;;;;;;;;19.25;18.25;;;;;13.64;73.24;101255.78;2402455;28;47398;-77
2022/12/25 00:51:52;;;;;;;;;22.75;20.00;;;;;13.63;72.80;101252.28;2397371;28;45240;-77
2022/12/25 00:53:03;;;;;;;;;19.25;19.00;;;;;13.64;72.96;101250.50;2402228;28;48221;-77
2022/12/25 00:54:13;;;;;;;;;19.50;18.50;;;;;13.63;73.22;101244.34;2405475;28;45174;-77
2022/12/25 00:55:23;;;;;;;;;18.75;16.75;;;;;13.65;73.04;101249.59;2412696;28;45269;-77
2022/12/25 00:56:34;;;;;;;;;20.50;18.00;;;;;13.65;73.07;101246.97;2412846;28;45160;-77
2022/12/25 00:57:44;;;;;;;;;19.00;16.00;;;;;13.64;73.17;101246.09;2401300;28;46895;-77
2022/12/25 00:58:55;;;;;;;;;18.75;18.25;;;;;13.64;73.04;101240.81;2402505;28;45254;-77
2022/12/25 01:00:06;;;;;;;;;18.00;16.00;;;;;13.63;73.24;101236.44;2395652;28;47178;-78
2022/12/25 01:01:16;;;;;;;;;24.00;17.50;;;;;13.65;72.99;101228.47;2395727;28;45439;-78
2022/12/25 01:02:27;;;;;;;;;19.50;17.50;;;;;13.65;73.26;101234.63;2395386;28;47095;-78
2022/12/25 01:03:37;;;;;;;;;20.50;16.00;;;;;13.65;72.97;101237.25;2407495;28;45431;-78
2022/12/25 01:04:55;;;;;;;;;24.25;20.00;;;;;13.67;73.27;101234.56;2408431;28;45329;-78
2022/12/25 01:06:06;;;;;;;;;19.25;19.25;;;;;13.67;73.30;101229.28;2402270;28;45445;-77
2022/12/25 01:07:17;;;;;;;;;23.50;20.75;;;;;13.66;73.06;101227.53;2402573;28;45438;-77
2022/12/25 01:08:31;;;;;;;;;23.75;19.25;;;;;13.66;73.13;101223.13;2409831;28;45273;-78
2022/12/25 01:11:11;;;;;;;;;14.50;14.50;;;;;13.63;73.24;101231.16;2412177;28;45229;-77
2022/12/25 01:12:21;;;;;;;;;22.50;18.75;;;;;13.64;73.23;101238.16;2412501;28;46203;-77
2022/12/25 01:13:34;;;;;;;;;22.50;18.50;;;;;13.64;73.38;101235.53;2402652;28;44678;-77
2022/12/25 01:14:45;;;;;;;;;20.00;17.75;;;;;13.64;73.23;101232.88;2401482;28;45383;-77
2022/12/25 01:15:55;;;;;;;;;20.00;17.50;;;;;13.65;73.17;101231.13;2403206;28;44655;-77
2022/12/25 01:17:06;;;;;;;;;19.00;18.00;;;;;13.65;73.36;101215.25;2410604;28;45362;-77
2022/12/25 01:18:18;;;;;;;;;19.75;18.25;;;;;13.64;73.36;101222.31;2404260;28;45416;-77
2022/12/25 01:19:28;;;;;;;;;22.00;17.25;;;;;13.64;72.98;101224.97;2411958;28;45269;-77
2022/12/25 01:20:38;;;;;;;;;18.00;17.50;;;;;13.66;73.33;101232.81;2406859;28;45171;-77
2022/12/25 01:21:49;;;;;;;;;22.25;19.00;;;;;13.65;73.00;101218.78;2402874;28;45501;-77
2022/12/25 01:22:59;;;;;;;;;18.75;18.50;;;;;13.64;73.32;101211.75;2402375;28;44584;-77
2022/12/25 01:24:09;;;;;;;;;15.75;14.75;;;;;13.66;73.13;101222.25;2402297;28;45208;-77
2022/12/25 01:25:19;;;;;;;;;19.50;17.50;;;;;13.66;73.07;101217.84;2403066;28;45277;-77
2022/12/25 01:26:30;;;;;;;;;18.75;17.50;;;;;13.66;73.07;101215.19;2406148;28;45231;-77
2022/12/25 01:27:41;;;;;;;;;22.75;17.50;;;;;13.66;73.35;101217.84;2412000;28;45218;-78
2022/12/25 01:28:52;;;;;;;;;19.25;15.75;;;;;13.67;73.29;101208.13;2405997;28;45328;-78
2022/12/25 01:30:03;;;;;;;;;16.50;16.50;;;;;13.66;73.22;101217.84;2403144;28;44750;-77
2022/12/25 01:31:16;;;;;;;;;21.25;18.00;;;;;13.67;73.55;101221.34;2402927;28;46496;-77
2022/12/25 01:32:27;;;;;;;;;16.00;14.75;;;;;13.67;73.08;101224.00;2402881;28;45305;-77
2022/12/25 01:33:38;;;;;;;;;16.75;16.25;;;;;13.67;73.06;101235.41;2401957;28;46010;-77
2022/12/25 01:34:49;;;;;;;;;21.75;17.75;;;;;13.67;73.29;101222.22;2400331;28;45327;-77
2022/12/25 01:35:59;;;;;;;;;22.25;17.25;;;;;13.67;73.10;101235.41;2410259;28;46693;-77
2022/12/25 01:37:10;;;;;;;;;20.25;18.75;;;;;13.67;73.03;101227.50;2410754;28;45301;-77
2022/12/25 01:38:20;;;;;;;;;17.25;16.75;;;;;13.69;73.02;101238.00;2404520;28;46363;-77
2022/12/25 01:39:31;;;;;;;;;15.75;14.75;;;;;13.68;73.30;101241.56;2402910;28;44623;-77
2022/12/25 01:40:41;;;;;;;;;17.00;15.00;;;;;13.67;73.02;101239.84;2402775;28;45253;-77
2022/12/25 01:41:51;;;;;;;;;18.75;17.00;;;;;13.67;73.12;101240.69;2403027;28;44568;-77
2022/12/25 01:43:02;;;;;;;;;19.50;16.75;;;;;13.68;73.33;101244.22;2402637;28;46384;-77
2022/12/25 01:44:12;;;;;;;;;18.00;18.00;;;;;13.70;73.37;101251.13;2402109;28;45284;-77
2022/12/25 01:45:40;;;;;;;;;15.75;14.25;;;;;13.69;73.01;101249.44;2402357;28;45302;-77
2022/12/25 01:46:51;;;;;;;;;21.25;17.75;;;;;13.69;73.12;101248.56;2407783;28;44721;-77
2022/12/25 01:48:06;;;;;;;;;22.25;17.75;;;;;13.68;72.93;101250.34;2407011;28;46309;-77
2022/12/25 01:49:22;;;;;;;;;14.50;13.00;;;;;13.69;73.38;101252.06;2408761;28;44741;-77
2022/12/25 01:50:34;;;;;;;;;17.50;16.25;;;;;13.69;73.33;101245.91;2408174;28;45317;-77
2022/12/25 01:52:11;;;;;;;;;14.75;12.50;;;;;13.69;73.06;101245.91;2411717;28;45380;-77
2022/12/25 01:53:22;;;;;;;;;19.25;17.50;;;;;13.68;73.35;101237.13;2408749;28;45392;-77
2022/12/25 01:54:38;;;;;;;;;18.75;16.50;;;;;13.67;73.45;101243.34;2411739;28;44590;-77
2022/12/25 01:55:54;;;;;;;;;21.00;19.00;;;;;13.67;73.31;101239.84;2411685;28;45455;-77
2022/12/25 01:57:11;;;;;;;;;16.25;14.50;;;;;13.67;73.37;101234.56;2405465;28;44777;-77
2022/12/25 01:58:22;;;;;;;;;17.75;17.50;;;;;13.67;73.15;101238.06;2402702;28;46514;-77
2022/12/25 01:59:33;;;;;;;;;17.75;16.75;;;;;13.68;73.36;101236.28;2403016;28;45226;-77
2022/12/25 02:00:44;;;;;;;;;17.00;16.50;;;;;13.67;73.23;101227.50;2402700;28;45246;-77
2022/12/25 02:01:56;;;;;;;;;16.50;15.00;;;;;13.67;73.39;101224.84;2402738;28;45414;-77
2022/12/25 02:03:06;;;;;;;;;14.00;13.50;;;;;13.66;73.38;101223.13;2404821;28;45471;-77
2022/12/25 02:04:52;;;;;;;;;17.75;13.75;;;;;13.67;73.25;101222.22;2401939;28;45277;-77
2022/12/25 02:06:02;;;;;;;;;16.75;14.50;;;;;13.66;73.47;101223.13;2397933;28;45595;-77
2022/12/25 02:07:22;;;;;;;;;12.25;12.25;;;;;13.67;73.36;101216.06;2411446;28;45439;-77
2022/12/25 02:08:33;;;;;;;;;15.00;11.75;;;;;13.67;73.32;101216.06;2408891;28;48142;-77
2022/12/25 02:09:44;;;;;;;;;12.50;11.25;;;;;13.67;73.32;101216.06;2411661;28;45266;-77
2022/12/25 02:10:54;;;;;;;;;8.00;7.50;;;;;13.68;73.21;101228.38;2404644;28;46240;-77
2022/12/25 02:12:06;;;;;;;;;11.75;10.00;;;;;13.68;73.40;101226.56;2392271;28;45438;-77
2022/12/25 02:13:19;;;;;;;;;13.25;12.75;;;;;13.68;73.53;101237.13;2395581;28;45627;-77
2022/12/25 02:14:33;;;;;;;;;16.75;10.75;;;;;13.68;73.39;101229.19;2402880;28;44574;-77
2022/12/25 02:16:12;;;;;;;;;16.25;12.25;;;;;13.71;73.39;101231.72;2402517;28;45338;-77
2022/12/25 02:17:51;;;;;;;;;15.50;11.25;;;;;13.70;73.51;101227.34;2412032;28;45270;-77
2022/12/25 02:19:35;;;;;;;;;12.50;9.75;;;;;13.69;73.35;101228.28;2412227;28;45272;-77
2022/12/25 02:21:20;;;;;;;;;11.50;10.25;;;;;13.71;73.62;101230.88;2412454;28;45333;-77
2022/12/25 02:22:49;;;;;;;;;12.50;8.75;;;;;13.69;73.35;101216.88;2412236;28;45423;-77
2022/12/25 02:24:20;;;;;;;;;13.75;10.50;;;;;13.69;73.30;101209.81;2412294;28;44635;-77
2022/12/25 02:26:05;;;;;;;;;13.00;12.50;;;;;13.70;73.39;101213.31;2412108;28;45328;-77
2022/12/25 02:27:36;;;;;;;;;14.50;10.50;;;;;13.68;73.65;101218.63;2412702;28;45355;-77
2022/12/25 02:28:52;;;;;;;;;17.50;11.50;;;;;13.70;73.61;101210.66;2405157;28;45428;-77
2022/12/25 02:30:09;;;;;;;;;12.00;10.75;;;;;13.69;73.49;101212.44;2404354;28;45361;-77
2022/12/25 02:32:01;;;;;;;;;14.00;10.00;;;;;13.70;73.53;101221.22;2404375;28;45456;-77
2022/12/25 02:34:02;;;;;;;;;14.25;12.00;;;;;13.69;73.58;101223.00;2365740;29;45325;-77
2022/12/25 02:35:23;;;;;;;;;17.75;14.75;;;;;13.69;73.45;101217.72;2410746;28;45405;-77
2022/12/25 02:36:44;;;;;;;;;15.25;12.00;;;;;13.70;73.52;101208.88;2402869;28;44838;-77
2022/12/25 02:38:05;;;;;;;;;11.75;10.75;;;;;13.68;73.60;101202.78;2407691;28;45405;-77
2022/12/25 02:39:58;;;;;;;;;14.75;13.50;;;;;13.68;73.59;101200.16;2413811;28;45340;-77
2022/12/25 02:41:15;;;;;;;;;10.75;9.75;;;;;13.68;73.37;101204.59;2405161;28;45352;-77
2022/12/25 03:07:44;;;;;;;;;13.00;13.00;;;;;13.70;73.56;101192.19;2413671;28;45244;-78
2022/12/25 03:11:29;;;;;;;;;12.75;12.75;;;;;13.71;73.42;101189.47;2395865;28;48070;-78
2022/12/25 03:12:30;;;;;;;;;15.75;11.75;;;;;13.71;73.63;101192.09;2413146;28;45404;-78
2022/12/25 03:13:45;;;;;;;;;15.75;11.25;;;;;13.71;73.51;101183.31;2413313;28;45531;-78
2022/12/25 03:17:58;;;;;;;;;17.75;16.00;;;;;13.70;73.54;101190.38;2403814;28;45247;-78
2022/12/25 03:26:55;;;;;;;;;21.00;16.50;;;;;13.70;73.63;101169.25;2405946;28;45156;-78
2022/12/25 03:28:05;;;;;;;;;21.00;20.25;;;;;13.69;73.61;101170.19;2413566;28;45296;-78
2022/12/25 03:31:10;;;;;;;;;17.25;15.75;;;;;13.71;73.96;101157.75;2364870;28;44746;-78
2022/12/25 03:32:35;;;;;;;;;16.50;14.75;;;;;13.70;73.62;101156.03;2412848;28;45617;-77
2022/12/25 03:36:04;;;;;;;;;20.50;16.00;;;;;13.70;73.74;101149.91;2404604;28;45294;-77
2022/12/25 04:36:57;;;;;;;;;23.00;15.75;;;;;13.70;73.69;101083.88;2408235;28;45400;-77
2022/12/25 04:38:08;;;;;;;;;19.75;15.50;;;;;13.70;73.94;101081.25;2400250;28;45598;-77
2022/12/25 04:39:18;;;;;;;;;19.00;18.00;;;;;13.70;73.64;101079.44;2396072;28;45313;-77
2022/12/25 04:40:28;;;;;;;;;23.75;17.25;;;;;13.70;73.82;101066.22;2405387;28;45467;-77
2022/12/25 04:41:39;;;;;;;;;18.00;17.00;;;;;13.70;73.75;101073.31;2412383;28;45398;-77
2022/12/25 04:42:50;;;;;;;;;16.50;15.50;;;;;13.72;73.58;101082.03;2412369;28;45404;-77
2022/12/25 04:44:00;;;;;;;;;19.75;16.50;;;;;13.70;73.50;101076.78;2408047;28;45428;-77
2022/12/25 04:45:11;;;;;;;;;20.00;18.00;;;;;13.72;73.83;101080.25;2403405;28;45221;-77
2022/12/25 04:46:21;;;;;;;;;19.00;17.50;;;;;13.72;73.58;101085.53;2403206;28;45251;-77
2022/12/25 04:47:32;;;;;;;;;20.75;18.50;;;;;13.72;73.54;101085.53;2394317;28;45307;-77
2022/12/25 04:48:42;;;;;;;;;21.75;19.00;;;;;13.72;73.59;101090.81;2411571;28;46611;-78
2022/12/25 04:49:52;;;;;;;;;17.75;17.25;;;;;13.73;73.71;101091.66;2413006;28;45131;-78
2022/12/25 04:51:29;;;;;;;;;19.50;17.00;;;;;13.73;73.48;101096.94;2412692;28;45206;-78
2022/12/25 04:52:40;;;;;;;;;26.00;20.25;;;;;13.73;73.78;101095.16;2408693;28;45506;-78
2022/12/25 04:53:52;;;;;;;;;24.00;22.00;;;;;13.74;73.62;101093.38;2412617;28;46467;-77
2022/12/25 04:55:03;;;;;;;;;21.25;18.50;;;;;13.74;73.67;101098.66;2412868;28;45140;-77
2022/12/25 04:56:14;;;;;;;;;25.75;19.50;;;;;13.75;73.63;101094.25;2402441;28;46138;-77
2022/12/25 04:57:25;;;;;;;;;18.25;17.00;;;;;13.75;73.65;101099.53;2404648;28;44822;-77
2022/12/25 04:58:35;;;;;;;;;17.75;15.75;;;;;13.74;73.62;101090.75;2402230;28;47077;-77
2022/12/25 04:59:45;;;;;;;;;14.25;13.00;;;;;13.73;73.50;101096.94;2405170;28;45631;-77
2022/12/25 05:00:59;;;;;;;;;22.75;18.25;;;;;13.73;73.65;101081.94;2407711;28;46244;-77
2022/12/25 05:02:10;;;;;;;;;21.75;19.50;;;;;13.75;73.58;101091.63;2392964;28;45311;-77
2022/12/25 05:03:20;;;;;;;;;28.50;20.50;;;;;13.73;73.80;101084.59;2395977;28;45270;-77
2022/12/25 05:04:31;;;;;;;;;21.50;19.75;;;;;13.75;73.57;101076.63;2403208;28;45224;-77
2022/12/25 05:05:41;;;;;;;;;25.25;21.75;;;;;13.74;73.76;101080.19;2404497;28;46437;-77
2022/12/25 05:06:51;;;;;;;;;23.25;20.00;;;;;13.75;73.54;101071.34;2411912;28;45202;-78
2022/12/25 05:08:04;;;;;;;;;22.75;18.25;;;;;13.75;73.66;101047.56;2401148;28;46345;-78
2022/12/25 05:09:14;;;;;;;;;22.75;19.75;;;;;13.74;73.75;101035.28;2407904;28;45374;-78
2022/12/25 05:10:25;;;;;;;;;23.50;21.50;;;;;13.75;73.49;101021.16;2405840;28;46456;-78
2022/12/25 05:11:35;;;;;;;;;18.50;16.25;;;;;13.74;73.30;101014.13;2412750;28;45368;-78
2022/12/25 05:12:45;;;;;;;;;25.50;18.75;;;;;13.73;73.65;101007.13;2405695;28;45354;-78
2022/12/25 05:13:56;;;;;;;;;20.00;17.00;;;;;13.73;73.69;101002.72;2408933;28;45289;-77
2022/12/25 05:15:07;;;;;;;;;26.75;17.25;;;;;13.73;73.44;100996.56;2410088;28;46297;-77
2022/12/25 05:16:19;;;;;;;;;19.50;16.00;;;;;13.73;73.71;101010.63;2409424;28;45364;-78
2022/12/25 05:17:29;;;;;;;;;21.75;19.75;;;;;13.72;73.54;101008.94;2403748;28;45389;-78
2022/12/25 05:18:39;;;;;;;;;29.50;23.25;;;;;13.75;73.57;101015.00;2403083;28;45266;-78
2022/12/25 05:19:50;;;;;;;;;15.50;15.50;;;;;13.73;73.74;101013.28;2404047;28;45617;-78
2022/12/25 05:21:00;;;;;;;;;21.00;16.25;;;;;13.75;73.53;101017.66;2402456;28;45236;-78
2022/12/25 05:22:11;;;;;;;;;19.00;16.00;;;;;13.76;73.77;101022.00;2402361;28;45244;-77
2022/12/25 05:23:21;;;;;;;;;14.25;13.25;;;;;13.75;73.52;101029.06;2402391;28;45207;-77
2022/12/25 05:24:32;;;;;;;;;20.75;15.25;;;;;13.74;73.53;101035.28;2402349;28;46798;-77
2022/12/25 05:25:42;;;;;;;;;18.00;14.25;;;;;13.74;73.65;101040.56;2404267;28;44623;-78
2022/12/25 05:26:53;;;;;;;;;18.75;15.25;;;;;13.75;73.48;101044.06;2411299;28;47202;-78
2022/12/25 05:28:03;;;;;;;;;18.50;16.75;;;;;13.75;73.47;101042.28;2412064;28;45261;-78
2022/12/25 05:29:14;;;;;;;;;21.75;18.25;;;;;13.76;73.55;101037.84;2412221;28;45621;-78
2022/12/25 05:30:24;;;;;;;;;17.75;15.25;;;;;13.76;73.75;101043.13;2412336;28;45448;-78
2022/12/25 05:31:34;;;;;;;;;17.75;13.50;;;;;13.76;73.52;101043.13;2412500;28;45355;-78
2022/12/25 05:32:46;;;;;;;;;15.50;14.00;;;;;13.76;73.44;101041.34;2412373;28;45175;-78
2022/12/25 05:33:57;;;;;;;;;18.25;16.00;;;;;13.76;73.82;101038.69;2407505;28;46943;-77
2022/12/25 05:35:07;;;;;;;;;12.75;10.25;;;;;13.78;73.62;101038.66;2402522;28;45247;-77
2022/12/25 05:36:18;;;;;;;;;17.75;14.25;;;;;13.77;73.47;101036.94;2417440;28;48071;-77
2022/12/25 05:37:28;;;;;;;;;15.25;14.00;;;;;13.77;73.85;101029.00;2412570;28;44647;-77
2022/12/25 05:38:39;;;;;;;;;15.50;14.50;;;;;13.78;73.45;101026.28;2402840;28;45343;-77
2022/12/25 05:39:49;;;;;;;;;14.00;12.75;;;;;13.78;73.74;101020.16;2403105;28;45305;-78
2022/12/25 05:41:00;;;;;;;;;18.25;13.75;;;;;13.79;73.41;101032.44;2402758;28;45211;-78
2022/12/25 05:42:10;;;;;;;;;14.75;12.25;;;;;13.76;73.43;101032.56;2402041;28;45176;-78
2022/12/25 05:43:22;;;;;;;;;12.75;11.50;;;;;13.77;73.38;101042.22;2402339;28;46613;-78
2022/12/25 05:44:32;;;;;;;;;13.00;12.00;;;;;13.77;73.49;101044.84;2403188;28;45234;-78
2022/12/25 05:45:43;;;;;;;;;13.75;10.25;;;;;13.78;73.40;101051.88;2411351;28;46424;-78
2022/12/25 05:46:53;;;;;;;;;18.25;13.50;;;;;13.77;73.66;101055.41;2412235;28;45409;-78
2022/12/25 05:48:04;;;;;;;;;17.25;14.75;;;;;13.78;73.60;101059.78;2412324;28;45218;-78
2022/12/25 05:49:14;;;;;;;;;14.50;14.25;;;;;13.78;73.70;101068.56;2412503;28;44568;-78
2022/12/25 05:50:24;;;;;;;;;13.75;11.50;;;;;13.77;73.40;101068.63;2411915;28;46540;-78
2022/12/25 05:51:35;;;;;;;;;14.25;13.00;;;;;13.79;73.39;101066.78;2407810;28;45394;-78
2022/12/25 05:52:45;;;;;;;;;17.50;13.75;;;;;13.78;73.65;101062.44;2409894;28;47265;-78
2022/12/25 05:53:55;;;;;;;;;10.50;9.50;;;;;13.77;73.67;101055.41;2411960;28;45285;-77
2022/12/25 05:55:06;;;;;;;;;12.75;12.75;;;;;13.76;73.49;101051.03;2412245;28;45233;-77
2022/12/25 05:56:16;;;;;;;;;18.00;13.25;;;;;13.76;73.62;101048.41;2408231;28;44877;-77
2022/12/25 05:57:28;;;;;;;;;17.00;14.00;;;;;13.78;73.67;101054.50;2407124;28;45332;-77
2022/12/25 05:58:39;;;;;;;;;16.50;13.25;;;;;13.78;73.54;101051.88;2411738;28;45422;-77
2022/12/25 05:59:49;;;;;;;;;11.50;11.50;;;;;13.78;73.44;101057.16;2412329;28;45364;-77
2022/12/25 06:01:00;;;;;;;;;16.75;13.25;;;;;13.77;73.60;101047.50;2411482;28;45178;-77
2022/12/25 06:02:10;;;;;;;;;16.50;15.50;;;;;13.78;73.56;101046.59;2410847;28;45186;-77
2022/12/25 06:03:22;;;;;;;;;13.50;12.50;;;;;13.78;73.56;101046.59;2402730;28;45169;-77
2022/12/25 06:04:32;;;;;;;;;15.00;12.00;;;;;13.76;73.62;101048.41;2392401;28;47162;-77
2022/12/25 06:05:42;;;;;;;;;16.00;14.00;;;;;13.76;73.49;101041.34;2395531;28;45301;-78
2022/12/25 06:06:52;;;;;;;;;13.50;11.50;;;;;13.77;73.25;101044.84;2402646;28;45351;-77
2022/12/25 06:08:03;;;;;;;;;15.25;12.25;;;;;13.76;73.72;101046.63;2412342;28;45290;-77
2022/12/25 06:09:13;;;;;;;;;13.25;11.00;;;;;13.76;73.71;101043.13;2412084;28;45358;-77
2022/12/25 06:10:24;;;;;;;;;16.75;12.50;;;;;13.76;73.71;101037.84;2409500;28;45558;-77
2022/12/25 06:11:34;;;;;;;;;14.00;12.00;;;;;13.73;73.38;101034.41;2402739;28;45731;-78
2022/12/25 06:12:44;;;;;;;;;14.75;10.75;;;;;13.73;73.67;101029.13;2395778;28;44817;-78
2022/12/25 06:13:55;;;;;;;;;15.75;14.75;;;;;13.74;73.55;101027.34;2401340;28;46994;-78
2022/12/25 06:15:06;;;;;;;;;12.25;9.50;;;;;13.75;73.58;101033.50;2394875;28;44826;-78
2022/12/25 06:16:16;;;;;;;;;12.50;8.50;;;;;13.75;73.53;101036.13;2401345;28;45448;-78
2022/12/25 06:17:26;;;;;;;;;14.50;12.00;;;;;13.73;73.59;101028.25;2402745;28;45413;-78
2022/12/25 06:18:39;;;;;;;;;13.75;11.75;;;;;13.74;73.73;101030.00;2401972;28;46201;-78
2022/12/25 06:19:50;;;;;;;;;15.00;13.75;;;;;13.75;73.56;101030.84;2408445;28;45265;-78
2022/12/25 06:21:00;;;;;;;;;14.25;11.50;;;;;13.75;73.72;101025.56;2412067;28;45192;-78
2022/12/25 06:22:10;;;;;;;;;12.25;12.00;;;;;13.75;73.63;101022.94;2412302;28;45210;-78
2022/12/25 06:23:21;;;;;;;;;14.50;12.00;;;;;13.75;73.56;101020.28;2411825;28;46285;-78
2022/12/25 06:24:31;;;;;;;;;10.00;9.00;;;;;13.75;73.54;101009.72;2410337;28;45436;-78
2022/12/25 06:25:41;;;;;;;;;13.00;10.50;;;;;13.76;73.45;101011.41;2400493;28;46274;-78
2022/12/25 06:26:52;;;;;;;;;18.25;14.25;;;;;13.75;73.45;101010.59;2393743;28;45412;-78
2022/12/25 06:28:02;;;;;;;;;13.50;11.75;;;;;13.73;73.18;101008.00;2404001;28;46332;-78
2022/12/25 06:29:13;;;;;;;;;14.50;14.50;;;;;13.73;73.57;101015.91;2400539;28;45564;-77
2022/12/25 06:30:23;;;;;;;;;15.50;10.25;;;;;13.73;73.48;101012.41;2390795;28;46729;-77
2022/12/25 06:31:33;;;;;;;;;12.00;10.50;;;;;13.71;73.23;101006.34;2385657;28;45361;-77
2022/12/25 06:32:44;;;;;;;;;10.50;9.25;;;;;13.70;73.23;101002.81;2395291;28;45271;-77
2022/12/25 06:33:54;;;;;;;;;12.00;10.75;;;;;13.69;73.53;101006.41;2402531;28;45262;-77
2022/12/25 06:35:05;;;;;;;;;15.50;13.75;;;;;13.68;73.55;100991.47;2402555;28;45457;-77
2022/12/25 06:36:19;;;;;;;;;10.00;9.50;;;;;13.69;73.28;101000.25;2412222;28;44664;-77
2022/12/25 06:37:30;;;;;;;;;12.50;12.00;;;;;13.68;73.30;100995.91;2411916;28;46273;-77
2022/12/25 06:38:41;;;;;;;;;13.00;9.50;;;;;13.68;73.49;101007.31;2411716;28;45385;-77
2022/12/25 06:39:51;;;;;;;;;12.75;10.50;;;;;13.66;73.52;101001.25;2411959;28;46328;-77
2022/12/25 06:41:09;;;;;;;;;14.00;10.00;;;;;13.67;73.31;101004.75;2410964;28;45216;-77
2022/12/25 06:42:19;;;;;;;;;14.00;12.25;;;;;13.66;73.36;101000.38;2402474;28;46339;-77
2022/12/25 06:43:29;;;;;;;;;9.75;9.75;;;;;13.65;73.48;100999.56;2402695;28;45270;-77
2022/12/25 06:44:40;;;;;;;;;12.25;11.25;;;;;13.66;73.48;100989.81;2402431;28;46171;-77
2022/12/25 06:45:51;;;;;;;;;14.75;13.00;;;;;13.65;73.45;100988.97;2408821;28;44585;-77
2022/12/25 06:47:02;;;;;;;;;14.25;13.25;;;;;13.66;73.40;100993.31;2401557;28;47767;-77
2022/12/25 06:48:12;;;;;;;;;11.25;8.25;;;;;13.65;73.61;100983.69;2404751;28;44623;-77
2022/12/25 06:49:23;;;;;;;;;10.00;9.00;;;;;13.64;73.58;100976.69;2401737;28;46766;-77
2022/12/25 06:50:33;;;;;;;;;13.25;10.25;;;;;13.64;73.28;100991.66;2410621;28;45170;-77
2022/12/25 06:51:43;;;;;;;;;13.75;10.50;;;;;13.64;73.52;100991.66;2411444;28;46278;-77
2022/12/25 06:52:55;;;;;;;;;15.00;9.50;;;;;13.63;73.76;100990.81;2411881;28;45147;-77
2022/12/25 06:54:05;;;;;;;;;14.00;12.75;;;;;13.64;73.30;100994.31;2411922;28;45437;-77
2022/12/25 06:55:15;;;;;;;;;12.25;10.00;;;;;13.63;73.38;100996.09;2411064;28;45333;-77
2022/12/25 06:56:27;;;;;;;;;11.00;9.25;;;;;13.63;73.39;100997.91;2412020;28;45411;-77
2022/12/25 06:57:37;;;;;;;;;12.25;9.75;;;;;13.62;73.54;100994.38;2410601;28;45281;-77
2022/12/25 06:58:59;;;;;;;;;7.50;7.00;;;;;13.64;73.61;101007.50;2411896;28;46272;-77
2022/12/25 07:00:10;;;;;;;;;13.00;11.25;;;;;13.61;73.46;100997.94;2401768;28;45308;-77
2022/12/25 07:01:24;;;;;;;;;13.50;11.25;;;;;13.61;73.60;101005.84;2399471;28;46285;-77
2022/12/25 07:02:37;;;;;;;;;14.75;13.00;;;;;13.61;73.75;101009.38;2402424;28;45231;-77
2022/12/25 07:03:50;;;;;;;;;10.00;10.00;;;;;13.61;73.38;101005.84;2402260;28;45569;-77
2022/12/25 07:05:02;;;;;;;;;9.75;9.75;;;;;13.60;73.74;101006.81;2392266;28;45254;-78
2022/12/25 07:06:13;;;;;;;;;11.00;9.50;;;;;13.60;73.58;101012.94;2401368;28;46692;-78
2022/12/25 07:07:24;;;;;;;;;11.50;10.50;;;;;13.60;73.53;101012.94;2410411;28;45179;-78
2022/12/25 07:08:34;;;;;;;;;11.00;9.50;;;;;13.58;73.17;101014.75;2402522;28;46032;-78
2022/12/25 07:09:45;;;;;;;;;12.75;11.50;;;;;13.60;73.74;101017.38;2402386;28;45403;-78
2022/12/25 07:10:55;;;;;;;;;11.25;10.50;;;;;13.58;73.59;101017.41;2401919;28;46929;-77
2022/12/25 07:12:07;;;;;;;;;14.25;13.00;;;;;13.60;73.43;101017.38;2401736;28;44758;-77
2022/12/25 07:13:17;;;;;;;;;12.75;9.00;;;;;13.59;73.52;101018.28;2403271;28;46792;-77
2022/12/25 07:14:27;;;;;;;;;12.00;10.75;;;;;13.57;73.49;101010.44;2404159;28;44681;-77
2022/12/25 07:15:37;;;;;;;;;13.00;9.50;;;;;13.59;73.26;101015.63;2403866;28;45334;-77